Flight Track Log - Related Links

Times and Time Zones

All times are in EDT time to prevent confusion due to time zone crossing. See the SWA3296 flight status page for this flight to view local times or setup timezone preferences in your user account.

Time Position Orientation Groundspeed Altitude Reporting Facility
EDT Latitude Longitude Course Direction KTS MPH feet Rate Location/Type
Thu 11:53:13 PM 36.0780 -115.1160 87° East 178 205 3,400  Level FlightAware ADS-B
Thu 11:53:47 PM 36.0760 -115.0730 93° East 232 267 4,400 2,595 Climbing FlightAware ADS-B
Thu 11:54:27 PM 36.0760 -115.0190 90° East 246 283 6,600 2,842 Climbing FlightAware ADS-B
Thu 11:55:03 PM 36.0700 -114.9650 98° East 288 331 8,000 2,308 Climbing FlightAware ADS-B
Thu 11:55:19 PM 36.0550 -114.9450 133° Southeast 295 339 8,600 3,000 Climbing FlightAware ADS-B
Thu 11:55:31 PM 36.0400 -114.9370 157° South 293 337 9,400 3,545 Climbing FlightAware ADS-B
Thu 11:55:41 PM 36.0270 -114.9350 173° South 292 336 9,900 3,070 Climbing FlightAware ADS-B
Thu 11:56:14 PM 35.9880 -114.9610 208° Southwest 307 353 11,600 2,609 Climbing FlightAware ADS-B
Thu 11:56:27 PM 35.9810 -114.9800 246° West 324 373 11,900 2,327 Climbing FlightAware ADS-B
Thu 11:57:03 PM 35.9760 -115.0500 265° West 351 404 13,500 2,921 Climbing FlightAware ADS-B
Thu 11:57:43 PM 35.9690 -115.1320 264° West 372 428 15,600 2,850 Climbing FlightAware ADS-B
Thu 11:58:23 PM 35.9620 -115.2200 264° West 398 458 17,300 2,700 Climbing FlightAware ADS-B
Thu 11:59:03 PM 35.9540 -115.3120 264° West 412 474 19,200 3,073 Climbing FlightAware ADS-B
Thu 11:59:45 PM 35.9460 -115.4100 264° West 412 474 21,500 2,925 Climbing FlightAware ADS-B
Fri 12:00:23 AM 35.9380 -115.5000 264° West 419 482 23,100 2,357 Climbing FlightAware ADS-B
Fri 12:01:09 AM 35.9280 -115.6100 264° West 432 497 24,800 2,182 Climbing FlightAware ADS-B
Fri 12:01:51 AM 35.9190 -115.7150 264° West 441 507 26,300 2,074 Climbing FlightAware ADS-B
Fri 12:02:30 AM 35.9100 -115.8110 263° West 447 514 27,600 2,000 Climbing FlightAware ADS-B
Fri 12:03:09 AM 35.9020 -115.9080 264° West 452 520 28,900 1,969 Climbing FlightAware ADS-B
Fri 12:03:34 AM 35.9130 -115.9750 281° West 461 531 29,700 2,000 Climbing FlightAware ADS-B
Fri 12:03:51 AM 35.9310 -116.0090 303° West 465 535 30,300 1,929 Climbing FlightAware ADS-B
Fri 12:04:30 AM 35.9930 -116.0830 316° Northwest 470 541 31,500 1,735 Climbing FlightAware ADS-B
Fri 12:05:14 AM 36.0630 -116.1640 317° Northwest 477 549 32,700 1,744 Climbing FlightAware ADS-B
Fri 12:05:56 AM 36.1320 -116.2430 317° Northwest 474 545 34,000 2,049 Climbing FlightAware ADS-B
Fri 12:06:36 AM 36.1930 -116.3130 317° Northwest 464 534 35,500 1,723 Climbing FlightAware ADS-B
Fri 12:07:30 AM 36.2710 -116.4060 316° Northwest 453 521 36,700 1,532 Climbing FlightAware ADS-B
Fri 12:08:10 AM 36.3320 -116.4770 317° Northwest 446 513 37,900 947 Climbing FlightAware ADS-B
Fri 12:08:46 AM 36.3780 -116.5310 317° Northwest 446 513 37,900  Level FlightAware ADS-B
Fri 12:09:34 AM 36.4380 -116.6040 316° Northwest 446 513 37,900  Level FlightAware ADS-B
Fri 12:10:10 AM 36.4830 -116.6580 316° Northwest 446 513 37,900  Level FlightAware ADS-B
Fri 12:10:46 AM 36.5290 -116.7130 316° Northwest 446 513 37,900  Level FlightAware ADS-B
Fri 12:11:33 AM 36.5880 -116.7840 316° Northwest 446 513 37,900  Level FlightAware ADS-B
Fri 12:12:09 AM 36.6340 -116.8390 316° Northwest 446 513 37,900 81 Level FlightAware ADS-B
Fri 12:12:47 AM 36.7870 -116.9180 338° Northwest 446 513 38,000 76 Climbing FlightAware ADS-B
Fri 12:13:28 AM 36.8610 -116.9740 329° Northwest 446 513 38,000  Level FlightAware ADS-B
Fri 12:14:10 AM 36.9240 -117.0230 328° Northwest 446 513 38,000  Level FlightAware ADS-B
Fri 12:15:10 AM 37.0130 -117.0930 328° Northwest 446 513 38,000  Level FlightAware ADS-B
Fri 12:15:46 AM 37.0890 -117.1490 330° Northwest 448 516 38,000  Level FlightAware ADS-B
Fri 12:16:30 AM 37.1820 -117.2200 329° Northwest 449 517 38,000  Level FlightAware ADS-B
Fri 12:17:14 AM 37.2580 -117.2790 328° Northwest 449 517 38,000  Level FlightAware ADS-B
Fri 12:17:48 AM 37.3150 -117.3330 323° Northwest 434 499 38,000  Level FlightAware ADS-B
Fri 12:18:16 AM 37.3370 -117.3950 294° West 418 481 38,000  Level FlightAware ADS-B
Fri 12:19:00 AM 37.3550 -117.5000 282° West 419 482 38,000  Level FlightAware ADS-B
Fri 12:19:32 AM 37.3690 -117.5760 283° West 421 484 38,000  Level FlightAware ADS-B
Fri 12:20:18 AM 37.3850 -117.6690 282° West 421 484 38,000  Level FlightAware ADS-B
Fri 12:20:54 AM 37.3970 -117.7430 282° West 421 484 38,000  Level FlightAware ADS-B
Fri 12:21:42 AM 37.4240 -117.8870 283° West 425 489 38,000  Level FlightAware ADS-B
Fri 12:22:25 AM 37.4420 -117.9930 282° West 427 491 38,000  Level FlightAware ADS-B
Fri 12:23:04 AM 37.4580 -118.0850 282° West 427 491 38,000  Level FlightAware ADS-B
Fri 12:23:49 AM 37.4770 -118.1950 282° West 427 491 38,000  Level FlightAware ADS-B
Fri 12:24:30 AM 37.4940 -118.2920 282° West 426 490 38,000  Level FlightAware ADS-B
Fri 12:25:10 AM 37.5110 -118.3910 282° West 424 488 38,000 -150 Level FlightAware ADS-B
Fri 12:25:50 AM 37.5250 -118.4830 281° West 423 487 37,800 -643 Descending FlightAware ADS-B
Fri 12:26:34 AM 37.5430 -118.5920 282° West 425 489 37,100 -977 Descending FlightAware ADS-B
Fri 12:27:16 AM 37.5600 -118.6970 282° West 429 494 36,400 -767 Descending FlightAware ADS-B
Fri 12:28:00 AM 37.5770 -118.8030 281° West 432 497 36,000 -286 Descending FlightAware ADS-B
Fri 12:28:40 AM 37.5930 -118.9020 282° West 431 496 36,000  Level FlightAware ADS-B
Fri 12:29:24 AM 37.6110 -119.0120 282° West 430 495 36,000  Level FlightAware ADS-B
Fri 12:30:04 AM 37.6270 -119.1100 282° West 429 494 36,000  Level FlightAware ADS-B
Fri 12:30:49 AM 37.6440 -119.2170 281° West 429 494 36,000  Level FlightAware ADS-B
Fri 12:31:24 AM 37.6580 -119.3040 282° West 429 494 36,000  Level FlightAware ADS-B
Fri 12:32:04 AM 37.6730 -119.4030 281° West 428 493 36,000  Level FlightAware ADS-B
Fri 12:32:45 AM 37.6890 -119.5030 281° West 429 494 36,000 -375 Level FlightAware ADS-B
Fri 12:33:24 AM 37.7040 -119.5990 281° West 429 494 35,500 -835 Descending FlightAware ADS-B
Fri 12:34:04 AM 37.7190 -119.6970 281° West 434 499 34,900 -963 Descending FlightAware ADS-B
Fri 12:34:45 AM 37.7350 -119.7980 281° West 434 499 34,200 -963 Descending FlightAware ADS-B
Fri 12:35:25 AM 37.7500 -119.8990 281° West 437 503 33,600 -929 Descending FlightAware ADS-B
Fri 12:36:09 AM 37.7670 -120.0110 281° West 442 509 32,900 -955 Descending FlightAware ADS-B
Fri 12:36:53 AM 37.7840 -120.1220 281° West 447 514 32,200 -1,000 Descending FlightAware ADS-B
Fri 12:37:33 AM 37.8000 -120.2250 281° West 453 521 31,500 -1,857 Descending FlightAware ADS-B
Fri 12:38:17 AM 37.8170 -120.3400 281° West 448 516 29,600 -2,684 Descending FlightAware ADS-B
Fri 12:38:49 AM 37.8290 -120.4210 281° West 441 507 28,100 -2,684 Descending FlightAware ADS-B
Fri 12:39:33 AM 37.8450 -120.5300 281° West 431 496 26,200 -2,651 Descending FlightAware ADS-B
Fri 12:40:15 AM 37.8600 -120.6340 280° West 427 491 24,300 -2,733 Descending FlightAware ADS-B
Fri 12:41:03 AM 37.8600 -120.7510 270° West 418 481 22,100 -2,674 Descending FlightAware ADS-B
Fri 12:41:47 AM 37.8530 -120.8570 265° West 414 476 20,200 -1,857 Descending FlightAware ADS-B
Fri 12:42:27 AM 37.8410 -120.9500 261° West 399 459 19,500 -1,263 Descending FlightAware ADS-B
Fri 12:43:03 AM 37.8210 -121.0300 252° West 391 450 18,600 -2,080 Descending FlightAware ADS-B
Fri 12:43:42 AM 37.7990 -121.1130 251° West 385 443 16,900 -2,667 Descending FlightAware ADS-B
Fri 12:44:24 AM 37.7760 -121.2030 252° West 379 436 15,000 -2,581 Descending FlightAware ADS-B
Fri 12:45:08 AM 37.7520 -121.2950 252° West 370 426 13,200 -2,455 Descending FlightAware ADS-B
Fri 12:45:52 AM 37.7290 -121.3840 252° West 360 414 11,400 -1,929 Descending FlightAware ADS-B
Fri 12:46:32 AM 37.7090 -121.4610 252° West 332 382 10,500 -1,000 Descending FlightAware ADS-B
Fri 12:47:16 AM 37.6890 -121.5370 252° West 295 339 10,000 -750 Descending FlightAware ADS-B
Fri 12:47:36 AM 37.6800 -121.5700 251° West 284 327 9,700 -1,125 Descending FlightAware ADS-B
Fri 12:48:04 AM 37.6690 -121.6130 252° West 281 323 9,100 -1,393 Descending FlightAware ADS-B
Fri 12:48:32 AM 37.6580 -121.6570 252° West 279 321 8,400 -1,286 Descending FlightAware ADS-B
Fri 12:49:00 AM 37.6460 -121.6990 250° West 272 313 7,900 -900 Descending FlightAware ADS-B
Fri 12:49:12 AM 37.6390 -121.7160 243° Southwest 263 303 7,800 -286 Descending FlightAware ADS-B
Fri 12:49:42 AM 37.6250 -121.7560 246° West 231 266 7,700 -517 Descending FlightAware ADS-B
Fri 12:50:10 AM 37.6140 -121.7890 247° West 216 249 7,300 -964 Descending FlightAware ADS-B
Fri 12:50:38 AM 37.6030 -121.8200 246° West 206 237 6,800 -1,053 Descending FlightAware ADS-B
Fri 12:51:07 AM 37.5920 -121.8510 246° West 201 231 6,300 -1,154 Descending FlightAware ADS-B
Fri 12:51:30 AM 37.5840 -121.8760 248° West 194 223 5,800 -1,527 Descending FlightAware ADS-B
Fri 12:52:02 AM 37.5730 -121.9090 247° West 193 222 4,900 -1,556 Descending FlightAware ADS-B
Fri 12:52:24 AM 37.5660 -121.9310 248° West 189 217 4,400 -1,304 Descending FlightAware ADS-B
Fri 12:52:48 AM 37.5580 -121.9560 248° West 184 212 3,900 -750 Descending FlightAware ADS-B
Fri 12:53:04 AM 37.5620 -121.9720 288° West 183 211 3,900  Level FlightAware ADS-B
Fri 12:53:16 AM 37.5700 -121.9790 325° Northwest 188 216 3,900  Level FlightAware ADS-B
Fri 12:53:42 AM 37.5930 -121.9860 346° North 190 219 3,900  Level FlightAware ADS-B
Fri 12:54:00 AM 37.6050 -121.9990 319° Northwest 184 212 3,900  Level FlightAware ADS-B
Fri 12:54:12 AM 37.6070 -122.0100 283° West 174 200 3,900 -500 Level FlightAware ADS-B
Fri 12:54:36 AM 37.6090 -122.0320 277° West 154 177 3,600 -923 Descending FlightAware ADS-B
Fri 12:55:04 AM 37.6100 -122.0570 273° West 138 159 3,100 -1,053 Descending FlightAware ADS-B
Fri 12:55:33 AM 37.6120 -122.0780 277° West 128 147 2,600 -857 Descending FlightAware ADS-B
Fri 12:56:00 AM 37.6210 -122.0940 305° West 126 145 2,300 -706 Descending FlightAware ADS-B
Fri 12:56:24 AM 37.6310 -122.1080 312° West 127 146 2,000 -750 Descending FlightAware ADS-B
Fri 12:56:40 AM 37.6370 -122.1180 307° West 132 152 1,800 -652 Descending FlightAware ADS-B
Fri 12:57:10 AM 37.6490 -122.1360 310° West 137 158 1,500 -724 Descending FlightAware ADS-B
Fri 12:57:38 AM 37.6600 -122.1530 309° West 139 160 1,100 -750 Descending FlightAware ADS-B
Fri 12:57:50 AM 37.6650 -122.1600 312° West 135 155 1,000 -600 Descending FlightAware ADS-B
Fri 12:58:18 AM 37.6760 -122.1770 309° West 127 146 700 -724 Descending FlightAware ADS-B
Fri 12:58:48 AM 37.6880 -122.1940 312° West 128 147 300 -800 Descending FlightAware ADS-B
Fri 12:59:14 AM 37.6970 -122.2080 309° West 127 146 -692 Descending FlightAware ADS-B
Fri 12:59:36 AM 37.7060 -122.2210 311° West 100 115  Level FlightAware ADS-B
Fri 01:00:04 AM 37.7100 -122.2260 315° West 27 31  Level FlightAware ADS-B
Fri 01:00:14 AM 37.7110 -122.2260 360° North 19 22  Level FlightAware ADS-B
Fri 01:00:44 AM 37.7110 -122.2240 90° East 25 29  Level FlightAware ADS-B
Fri 01:01:13 AM 37.7090 -122.2210 130° Southeast 21 24  Level FlightAware ADS-B
Fri 01:01:35 AM 37.7070 -122.2190 142° Southeast 17 20  Level FlightAware ADS-B
Fri 01:02:16 AM 37.7080 -122.2170 58° Northeast 29 33  Level FlightAware ADS-B
Fri 01:02:57 AM 37.7090 -122.2160 38° Northeast 18 21  Level FlightAware ADS-B
Fri 01:03:09 AM 37.7090 -122.2150 90° East 21 24  Level FlightAware ADS-B
Fri 01:07:00 AM 37.7167 -122.2167 270° West  Level FlightAware Approximate
Fri 01:08:00 AM 37.7213 -122.2207 270° West  Level Estimated

Login

Don't have an account? Register now (free) for customized features, flight alerts, and more!